createdAt,value
2023-09-25T00:01:22.157Z,62.65
2023-09-25T00:03:50.333Z,62.73
2023-09-25T00:06:17.754Z,62.75
2023-09-25T00:08:46.047Z,62.77
2023-09-25T00:11:12.912Z,62.50
2023-09-25T00:13:39.883Z,62.54
2023-09-25T00:16:14.991Z,62.40
2023-09-25T00:18:42.406Z,62.40
2023-09-25T00:21:09.636Z,62.34
2023-09-25T00:23:36.458Z,62.35
2023-09-25T00:26:04.730Z,62.27
2023-09-25T00:28:31.994Z,62.32
2023-09-25T00:30:59.769Z,62.37
2023-09-25T00:33:27.700Z,62.23
2023-09-25T00:35:56.353Z,62.32
2023-09-25T00:38:23.351Z,62.45
2023-09-25T00:40:49.944Z,62.49
2023-09-25T00:43:16.767Z,62.53
2023-09-25T00:45:46.832Z,62.62
2023-09-25T00:48:26.606Z,62.60
2023-09-25T00:50:59.420Z,62.58
2023-09-25T00:53:27.287Z,62.73
2023-09-25T00:55:57.449Z,62.57
2023-09-25T00:58:25.695Z,62.59
2023-09-25T01:00:54.302Z,62.61
2023-09-25T01:03:21.182Z,62.38
2023-09-25T01:05:48.751Z,62.37
2023-09-25T01:08:15.851Z,62.23
2023-09-25T01:10:43.008Z,62.07
2023-09-25T01:13:10.788Z,62.10
2023-09-25T01:15:39.556Z,62.10
2023-09-25T01:18:06.573Z,61.86
2023-09-25T01:20:33.907Z,62.04
2023-09-25T01:23:00.870Z,62.37
2023-09-25T01:25:27.793Z,62.59
2023-09-25T01:27:55.962Z,62.70
2023-09-25T01:30:24.711Z,62.83
2023-09-25T01:32:52.813Z,62.96
2023-09-25T01:35:24.068Z,63.13
2023-09-25T01:37:57.742Z,63.12
2023-09-25T01:40:25.047Z,63.24
2023-09-25T01:42:52.410Z,63.13
2023-09-25T01:45:20.343Z,63.29
2023-09-25T01:47:51.354Z,63.18
2023-09-25T01:50:19.918Z,63.15
2023-09-25T01:52:50.994Z,63.06
2023-09-25T01:55:17.774Z,62.98
2023-09-25T01:57:44.519Z,62.80
2023-09-25T02:00:13.130Z,62.64
2023-09-25T02:02:42.634Z,62.57
2023-09-25T02:05:10.311Z,62.54
2023-09-25T02:07:37.511Z,62.56
2023-09-25T02:10:06.650Z,62.48
2023-09-25T02:12:33.605Z,62.48
2023-09-25T02:15:03.808Z,62.43
2023-09-25T02:17:30.906Z,62.44
2023-09-25T02:20:11.386Z,62.42
2023-09-25T02:22:40.578Z,62.46
2023-09-25T02:25:09.394Z,62.60
2023-09-25T02:27:37.314Z,62.67
2023-09-25T02:30:06.522Z,62.71
2023-09-25T02:32:33.261Z,62.81
2023-09-25T02:35:00.344Z,62.83
2023-09-25T02:37:27.292Z,62.72
2023-09-25T02:39:54.252Z,62.56
2023-09-25T02:42:21.129Z,62.51
2023-09-25T02:44:47.842Z,62.43
2023-09-25T02:47:14.603Z,62.35
2023-09-25T02:49:41.542Z,62.36
2023-09-25T02:52:08.225Z,62.40
2023-09-25T02:54:35.090Z,62.39
2023-09-25T02:57:02.255Z,62.34
2023-09-25T02:59:29.152Z,62.31
2023-09-25T03:01:55.957Z,62.24
2023-09-25T03:04:22.781Z,62.27
2023-09-25T03:06:49.647Z,62.36
2023-09-25T03:09:16.931Z,62.33
2023-09-25T03:11:45.743Z,62.36
2023-09-25T03:14:12.487Z,62.48
2023-09-25T03:16:41.522Z,62.51
2023-09-25T03:19:08.405Z,62.56
2023-09-25T03:21:35.415Z,62.59
2023-09-25T03:24:02.446Z,62.65
2023-09-25T03:26:29.573Z,62.64
2023-09-25T03:28:56.344Z,62.66
2023-09-25T03:31:22.900Z,62.59
2023-09-25T03:33:49.787Z,62.44
2023-09-25T03:36:16.726Z,62.32
2023-09-25T03:38:43.748Z,62.27
2023-09-25T03:41:10.821Z,62.10
2023-09-25T03:43:37.547Z,62.04
2023-09-25T03:46:04.217Z,61.99
2023-09-25T03:48:31.539Z,61.88
2023-09-25T03:50:58.608Z,61.91
2023-09-25T03:53:25.567Z,61.82
2023-09-25T03:55:53.222Z,61.79
2023-09-25T03:58:19.874Z,61.77
2023-09-25T04:00:46.620Z,61.75
2023-09-25T04:03:13.521Z,61.72
2023-09-25T04:05:40.435Z,61.63
2023-09-25T04:08:07.431Z,61.64
2023-09-25T04:10:34.066Z,61.74
2023-09-25T04:13:01.206Z,61.93
2023-09-25T04:15:27.918Z,62.04
2023-09-25T04:17:55.178Z,62.20
2023-09-25T04:20:24.925Z,62.28
2023-09-25T04:22:57.185Z,62.30
2023-09-25T04:25:25.237Z,62.36
2023-09-25T04:27:55.466Z,62.28
2023-09-25T04:30:24.857Z,62.32
2023-09-25T04:32:55.408Z,62.24
2023-09-25T04:35:23.467Z,62.16
2023-09-25T04:37:51.052Z,62.04
2023-09-25T04:40:25.888Z,61.92
2023-09-25T04:42:53.452Z,61.88
2023-09-25T04:45:21.000Z,61.92
2023-09-25T04:47:55.648Z,61.94
2023-09-25T04:50:24.120Z,61.83
2023-09-25T04:52:51.248Z,61.81
2023-09-25T04:55:18.224Z,61.86
2023-09-25T04:57:47.348Z,61.96
2023-09-25T05:00:22.491Z,61.95
2023-09-25T05:02:50.035Z,62.05
2023-09-25T05:05:17.920Z,62.14
2023-09-25T05:07:47.003Z,62.19
2023-09-25T05:10:15.274Z,62.47
2023-09-25T05:12:44.141Z,62.63
2023-09-25T05:15:15.753Z,62.84
2023-09-25T05:17:44.128Z,62.90
2023-09-25T05:20:12.797Z,63.07
2023-09-25T05:22:41.253Z,63.16
2023-09-25T05:25:09.883Z,63.18
2023-09-25T05:27:43.362Z,63.27
2023-09-25T05:30:11.726Z,63.38
2023-09-25T05:32:40.604Z,63.37
2023-09-25T05:35:08.764Z,63.48
2023-09-25T05:37:37.011Z,63.47
2023-09-25T05:40:10.728Z,63.58
2023-09-25T05:42:39.787Z,63.52
2023-09-25T05:45:07.794Z,63.54
2023-09-25T05:47:34.933Z,63.40
2023-09-25T05:50:03.540Z,63.33
2023-09-25T05:52:30.471Z,63.22
2023-09-25T05:54:57.292Z,63.12
2023-09-25T05:57:24.454Z,63.17
2023-09-25T05:59:51.251Z,63.23
2023-09-25T06:02:17.982Z,63.36
2023-09-25T06:04:45.584Z,63.43
2023-09-25T06:07:12.862Z,63.53
2023-09-25T06:09:39.724Z,63.63
2023-09-25T06:12:06.848Z,63.67
2023-09-25T06:14:35.728Z,63.63
2023-09-25T06:17:02.888Z,63.60
2023-09-25T06:19:30.230Z,63.45
2023-09-25T06:21:57.226Z,63.33
2023-09-25T06:24:23.944Z,63.25
2023-09-25T06:26:50.878Z,63.01
2023-09-25T06:29:17.937Z,63.02
2023-09-25T06:31:59.534Z,62.83
2023-09-25T06:34:28.414Z,62.72
2023-09-25T06:36:55.654Z,62.72
2023-09-25T06:39:23.814Z,62.51
2023-09-25T06:41:50.916Z,62.49
2023-09-25T06:44:20.010Z,62.40
2023-09-25T06:46:47.089Z,62.44
2023-09-25T06:49:14.322Z,62.43
2023-09-25T06:51:41.568Z,62.41
2023-09-25T06:54:09.322Z,62.44
2023-09-25T06:56:36.294Z,62.50
2023-09-25T06:59:03.247Z,62.61
2023-09-25T07:01:30.904Z,62.74
2023-09-25T07:03:58.263Z,62.83
2023-09-25T07:06:25.636Z,62.93
2023-09-25T07:08:52.596Z,63.04
2023-09-25T07:11:19.933Z,62.95
2023-09-25T07:13:48.269Z,63.08
2023-09-25T07:16:15.085Z,62.92
2023-09-25T07:18:44.483Z,62.82
2023-09-25T07:21:11.012Z,62.70
2023-09-25T07:23:37.970Z,62.77
2023-09-25T07:26:09.983Z,62.66
2023-09-25T07:28:37.754Z,62.62
2023-09-25T07:31:06.111Z,62.68
2023-09-25T07:33:33.995Z,62.64
2023-09-25T07:36:02.924Z,62.60
2023-09-25T07:38:32.264Z,62.78
2023-09-25T07:41:01.730Z,62.57
2023-09-25T07:43:46.671Z,62.61
2023-09-25T07:46:20.084Z,62.72
2023-09-25T07:48:47.847Z,62.71
2023-09-25T07:51:15.050Z,62.81
2023-09-25T07:53:45.321Z,62.99
2023-09-25T07:56:12.673Z,63.11
2023-09-25T07:58:40.398Z,63.36
2023-09-25T08:01:09.439Z,63.34
2023-09-25T08:03:38.535Z,63.30
2023-09-25T08:06:06.201Z,63.27
2023-09-25T08:08:36.109Z,63.39
2023-09-25T08:11:03.412Z,63.13
2023-09-25T08:13:30.360Z,63.07
2023-09-25T08:16:06.584Z,63.11
2023-09-25T08:18:34.631Z,63.01
2023-09-25T08:21:01.918Z,63.04
2023-09-25T08:23:29.694Z,62.91
2023-09-25T08:25:56.961Z,62.91
2023-09-25T08:28:24.712Z,62.77
2023-09-25T08:30:51.476Z,62.72
2023-09-25T08:33:19.302Z,62.69
2023-09-25T08:35:46.030Z,62.85
2023-09-25T08:38:13.071Z,62.62
2023-09-25T08:40:47.899Z,62.87
2023-09-25T08:43:20.320Z,62.94
2023-09-25T08:45:50.884Z,62.77
2023-09-25T08:48:18.332Z,62.92
2023-09-25T08:50:46.736Z,63.05
2023-09-25T08:53:13.928Z,63.16
2023-09-25T08:55:43.099Z,63.10
2023-09-25T08:58:10.772Z,63.09
2023-09-25T09:00:39.217Z,63.07
2023-09-25T09:03:06.937Z,62.88
2023-09-25T09:05:33.879Z,62.90
2023-09-25T09:08:06.368Z,62.87
2023-09-25T09:10:35.135Z,62.82
2023-09-25T09:13:05.105Z,62.74
2023-09-25T09:15:33.192Z,62.86
2023-09-25T09:18:17.081Z,62.63
2023-09-25T09:20:44.360Z,62.66
2023-09-25T09:23:11.030Z,62.66
2023-09-25T09:25:37.733Z,62.39
2023-09-25T09:28:06.329Z,62.59
2023-09-25T09:30:32.995Z,62.81
2023-09-25T09:33:00.021Z,62.75
2023-09-25T09:35:26.952Z,62.81
2023-09-25T09:37:58.612Z,62.87
2023-09-25T09:40:27.712Z,62.81
2023-09-25T09:42:55.525Z,62.59
2023-09-25T09:45:22.898Z,62.66
2023-09-25T09:47:51.779Z,62.52
2023-09-25T09:50:22.078Z,62.34
2023-09-25T09:52:49.589Z,62.48
2023-09-25T09:55:19.847Z,62.14
2023-09-25T09:57:49.004Z,62.02
2023-09-25T10:00:17.176Z,61.86
2023-09-25T10:02:49.046Z,61.69
2023-09-25T10:05:17.842Z,61.58
2023-09-25T10:08:09.674Z,61.51
2023-09-25T10:10:39.380Z,61.53
2023-09-25T10:13:22.437Z,61.58
2023-09-25T10:16:00.957Z,61.52
2023-09-25T10:18:29.788Z,61.45
2023-09-25T10:21:26.206Z,61.53
2023-09-25T10:23:55.734Z,61.48
2023-09-25T10:26:24.802Z,61.58
2023-09-25T10:29:14.765Z,61.46
2023-09-25T10:31:48.316Z,61.41
2023-09-25T10:34:16.101Z,61.42
2023-09-25T10:36:48.639Z,61.60
2023-09-25T10:39:17.539Z,61.60
2023-09-25T10:41:47.701Z,61.31
2023-09-25T10:44:15.779Z,61.13
2023-09-25T10:46:42.717Z,61.07
2023-09-25T10:49:09.935Z,60.89
2023-09-25T10:51:37.178Z,60.80
2023-09-25T10:54:04.454Z,60.74
2023-09-25T10:56:33.138Z,60.54
2023-09-25T10:59:01.198Z,60.34
2023-09-25T11:01:30.416Z,60.18
2023-09-25T11:04:01.561Z,60.17
2023-09-25T11:06:29.672Z,60.04
2023-09-25T11:09:08.184Z,59.87
2023-09-25T11:11:35.284Z,59.67
2023-09-25T11:14:03.197Z,59.67
2023-09-25T11:16:30.302Z,59.65
2023-09-25T11:19:08.154Z,59.59
2023-09-25T11:21:35.155Z,59.66
2023-09-25T11:24:05.568Z,59.48
2023-09-25T11:26:36.730Z,59.34
2023-09-25T11:29:07.196Z,59.22
2023-09-25T11:31:49.939Z,59.32
2023-09-25T11:34:22.802Z,59.21
2023-09-25T11:36:49.904Z,59.15
2023-09-25T11:39:17.204Z,59.16
2023-09-25T11:41:46.325Z,59.02
2023-09-25T11:44:14.325Z,58.95
2023-09-25T11:46:45.083Z,58.86
2023-09-25T11:49:15.043Z,58.81
2023-09-25T11:51:41.950Z,58.77
2023-09-25T11:54:09.652Z,58.71
2023-09-25T11:56:36.661Z,58.63
2023-09-25T11:59:04.577Z,58.44
2023-09-25T12:01:31.321Z,58.51
2023-09-25T12:03:59.013Z,58.35
2023-09-25T12:06:26.444Z,58.38
2023-09-25T12:08:53.129Z,58.36
2023-09-25T12:11:21.450Z,58.34
2023-09-25T12:13:48.421Z,58.21
2023-09-25T12:16:15.326Z,58.28
2023-09-25T12:18:42.478Z,58.14
2023-09-25T12:21:09.559Z,58.12
2023-09-25T12:23:36.255Z,58.06
2023-09-25T12:26:04.213Z,57.92
2023-09-25T12:28:31.067Z,57.85
2023-09-25T12:30:58.148Z,57.89
2023-09-25T12:33:25.575Z,57.72
2023-09-25T12:35:52.951Z,57.26
2023-09-25T12:38:19.690Z,56.86
2023-09-25T12:40:47.142Z,56.35
2023-09-25T12:43:14.015Z,56.46
2023-09-25T12:45:40.959Z,56.34
2023-09-25T12:48:08.489Z,56.03
2023-09-25T12:50:35.612Z,55.82
2023-09-25T12:53:02.612Z,55.82
2023-09-25T12:55:32.189Z,55.52
2023-09-25T12:58:00.268Z,55.38
2023-09-25T13:00:27.490Z,55.31
2023-09-25T13:02:54.544Z,55.25
2023-09-25T13:05:21.372Z,55.12
2023-09-25T13:07:48.253Z,55.05
2023-09-25T13:10:15.217Z,54.91
2023-09-25T13:12:41.829Z,54.75
2023-09-25T13:15:09.176Z,54.93
2023-09-25T13:17:36.614Z,54.71
2023-09-25T13:20:07.840Z,54.68
2023-09-25T13:22:37.244Z,54.53
2023-09-25T13:25:08.264Z,54.30
2023-09-25T13:27:37.450Z,54.33
2023-09-25T13:30:12.283Z,54.29
2023-09-25T13:32:39.124Z,54.07
2023-09-25T13:35:10.162Z,54.10
2023-09-25T13:37:38.293Z,54.05
2023-09-25T13:40:11.369Z,54.09
2023-09-25T13:42:38.160Z,54.17
2023-09-25T13:45:05.552Z,54.22
2023-09-25T13:47:32.879Z,54.10
2023-09-25T13:49:59.799Z,54.26
2023-09-25T13:52:26.819Z,53.96
2023-09-25T13:54:54.951Z,53.97
2023-09-25T13:57:21.737Z,53.84
2023-09-25T13:59:48.578Z,54.01
2023-09-25T14:02:15.244Z,53.90
2023-09-25T14:04:42.739Z,54.03
2023-09-25T14:07:09.924Z,53.84
2023-09-25T14:09:36.626Z,53.51
2023-09-25T14:12:03.643Z,53.42
2023-09-25T14:14:59.714Z,53.37
2023-09-25T14:17:26.667Z,53.20
2023-09-25T14:19:53.452Z,53.17
2023-09-25T14:22:20.621Z,53.14
2023-09-25T14:24:47.341Z,53.25
2023-09-25T14:27:14.516Z,53.34
2023-09-25T14:29:41.105Z,53.20
2023-09-25T14:32:07.914Z,53.22
2023-09-25T14:34:35.477Z,53.06
2023-09-25T14:37:02.380Z,52.75
2023-09-25T14:39:31.212Z,52.97
2023-09-25T14:41:58.072Z,52.77
2023-09-25T14:44:26.660Z,52.90
2023-09-25T14:46:54.192Z,53.13
2023-09-25T14:49:20.948Z,53.07
2023-09-25T14:51:48.025Z,53.08
2023-09-25T14:54:14.855Z,53.22
2023-09-25T14:56:41.464Z,53.40
2023-09-25T14:59:08.036Z,53.40
2023-09-25T15:01:34.871Z,53.59
2023-09-25T15:04:01.769Z,53.63
2023-09-25T15:06:28.663Z,53.85
2023-09-25T15:08:56.686Z,53.89
2023-09-25T15:11:24.043Z,54.11
2023-09-25T15:13:51.483Z,54.16
2023-09-25T15:16:18.773Z,54.26
2023-09-25T15:18:45.662Z,54.51
2023-09-25T15:21:12.694Z,54.45
2023-09-25T15:23:39.925Z,54.47
2023-09-25T15:26:06.773Z,54.65
2023-09-25T15:28:34.037Z,54.88
2023-09-25T15:31:00.707Z,54.87
2023-09-25T15:33:27.709Z,55.05
2023-09-25T15:35:55.396Z,55.07
2023-09-25T15:38:23.173Z,55.38
2023-09-25T15:40:50.973Z,55.34
2023-09-25T15:43:17.754Z,55.60
2023-09-25T15:45:45.543Z,55.64
2023-09-25T15:48:12.562Z,55.77
2023-09-25T15:50:39.841Z,55.95
2023-09-25T15:53:06.827Z,56.08
2023-09-25T15:55:33.443Z,56.08
2023-09-25T15:58:00.393Z,56.12
2023-09-25T16:00:28.240Z,56.16
2023-09-25T16:02:55.317Z,56.23
2023-09-25T16:05:22.197Z,56.41
2023-09-25T16:07:48.863Z,56.57
2023-09-25T16:10:16.288Z,56.70
2023-09-25T16:12:43.335Z,56.74
2023-09-25T16:15:10.748Z,56.82
2023-09-25T16:17:37.413Z,56.96
2023-09-25T16:20:05.070Z,57.12
2023-09-25T16:22:32.086Z,57.21
2023-09-25T16:24:58.740Z,57.16
2023-09-25T16:27:25.806Z,57.23
2023-09-25T16:29:52.422Z,57.37
2023-09-25T16:32:19.038Z,57.45
2023-09-25T16:34:46.412Z,57.47
2023-09-25T16:37:13.374Z,57.47
2023-09-25T16:39:40.346Z,57.51
2023-09-25T16:42:07.167Z,57.47
2023-09-25T16:44:33.698Z,57.22
2023-09-25T16:47:00.695Z,57.44
2023-09-25T16:49:27.798Z,57.62
2023-09-25T16:51:54.630Z,57.63
2023-09-25T16:54:21.827Z,57.77
2023-09-25T16:56:48.882Z,57.60
2023-09-25T16:59:16.045Z,57.88
2023-09-25T17:01:43.020Z,58.01
2023-09-25T17:04:10.217Z,58.15
2023-09-25T17:06:37.702Z,58.18
2023-09-25T17:09:04.837Z,58.22
2023-09-25T17:11:33.963Z,58.25
2023-09-25T17:14:01.443Z,58.06
2023-09-25T17:16:31.311Z,58.12
2023-09-25T17:18:59.493Z,57.97
2023-09-25T17:21:26.798Z,58.06
2023-09-25T17:23:53.950Z,57.80
2023-09-25T17:26:21.513Z,57.92
2023-09-25T17:28:51.774Z,57.65
2023-09-25T17:31:20.863Z,57.73
2023-09-25T17:33:50.264Z,57.56
2023-09-25T17:36:17.558Z,57.62
2023-09-25T17:38:44.877Z,57.69
2023-09-25T17:41:12.052Z,57.88
2023-09-25T17:43:38.889Z,57.81
2023-09-25T17:46:08.049Z,57.73
2023-09-25T17:48:36.915Z,57.79
2023-09-25T17:51:04.122Z,57.73
2023-09-25T17:53:31.201Z,57.90
2023-09-25T17:55:58.374Z,58.10
2023-09-25T17:58:31.111Z,57.99
2023-09-25T18:01:00.182Z,58.01
2023-09-25T18:03:28.787Z,57.96
2023-09-25T18:05:56.032Z,57.95
2023-09-25T18:08:25.680Z,58.15
2023-09-25T18:10:52.926Z,58.11
2023-09-25T18:13:20.911Z,58.12
2023-09-25T18:15:52.362Z,58.30
2023-09-25T18:18:19.674Z,58.37
2023-09-25T18:20:46.750Z,58.46
2023-09-25T18:23:14.200Z,58.31
2023-09-25T18:25:43.191Z,58.44
2023-09-25T18:28:10.378Z,58.42
2023-09-25T18:30:38.107Z,58.64
2023-09-25T18:33:10.095Z,58.50
2023-09-25T18:35:38.378Z,58.37
2023-09-25T18:38:06.078Z,58.70
2023-09-25T18:40:35.897Z,58.95
2023-09-25T18:43:05.229Z,59.02
2023-09-25T18:45:33.788Z,59.40
2023-09-25T18:48:01.322Z,59.50
2023-09-25T18:50:28.204Z,59.69
2023-09-25T18:52:55.113Z,59.50
2023-09-25T18:55:21.842Z,59.45
2023-09-25T18:57:48.506Z,59.71
2023-09-25T19:00:15.944Z,59.78
2023-09-25T19:02:42.744Z,59.75
2023-09-25T19:05:09.539Z,59.96
2023-09-25T19:07:36.548Z,59.88
2023-09-25T19:10:04.246Z,59.81
2023-09-25T19:12:31.200Z,59.95
2023-09-25T19:14:58.040Z,59.91
2023-09-25T19:17:25.797Z,59.98
2023-09-25T19:19:53.053Z,59.84
2023-09-25T19:22:20.304Z,60.09
2023-09-25T19:24:47.212Z,60.00
2023-09-25T19:27:14.416Z,60.16
2023-09-25T19:29:41.071Z,60.38
2023-09-25T19:32:07.948Z,60.45
2023-09-25T19:34:35.242Z,60.61
2023-09-25T19:37:01.989Z,60.70
2023-09-25T19:39:30.251Z,60.76
2023-09-25T19:41:57.085Z,60.73
2023-09-25T19:44:23.968Z,60.86
2023-09-25T19:46:53.124Z,60.80
2023-09-25T19:49:20.298Z,60.70
2023-09-25T19:51:48.729Z,60.67
2023-09-25T19:54:17.328Z,60.56
2023-09-25T19:56:43.982Z,60.50
2023-09-25T19:59:10.689Z,60.35
2023-09-25T20:01:37.475Z,60.40
2023-09-25T20:04:05.208Z,60.38
2023-09-25T20:06:32.358Z,60.60
2023-09-25T20:08:59.563Z,60.47
2023-09-25T20:11:26.406Z,60.35
2023-09-25T20:13:53.076Z,60.33
2023-09-25T20:16:21.126Z,60.36
2023-09-25T20:18:48.389Z,60.31
2023-09-25T20:21:15.158Z,60.46
2023-09-25T20:23:42.893Z,60.47
2023-09-25T20:26:10.775Z,60.27
2023-09-25T20:28:38.322Z,60.48
2023-09-25T20:31:05.532Z,60.68
2023-09-25T20:33:32.745Z,60.66
2023-09-25T20:35:59.592Z,60.82
2023-09-25T20:38:26.354Z,60.76
2023-09-25T20:40:53.102Z,60.90
2023-09-25T20:43:19.855Z,60.81
2023-09-25T20:45:46.651Z,60.75
2023-09-25T20:48:13.597Z,60.69
2023-09-25T20:50:41.093Z,60.57
2023-09-25T20:53:07.802Z,60.44
2023-09-25T20:55:35.134Z,60.24
2023-09-25T20:58:03.853Z,60.33
2023-09-25T21:00:31.268Z,60.21
2023-09-25T21:02:59.348Z,59.93
2023-09-25T21:05:27.580Z,60.05
2023-09-25T21:07:55.301Z,60.04
2023-09-25T21:10:22.431Z,60.03
2023-09-25T21:12:49.421Z,60.09
2023-09-25T21:15:16.890Z,60.08
2023-09-25T21:17:44.137Z,59.95
2023-09-25T21:20:37.184Z,59.94
2023-09-25T21:23:04.648Z,59.92
2023-09-25T21:25:31.262Z,59.85
2023-09-25T21:27:58.165Z,59.82
2023-09-25T21:30:25.174Z,59.85
2023-09-25T21:32:52.098Z,59.90
2023-09-25T21:35:19.390Z,59.72
2023-09-25T21:37:46.249Z,59.67
2023-09-25T21:40:12.943Z,59.75
2023-09-25T21:42:40.096Z,59.73
2023-09-25T21:45:07.901Z,59.85
2023-09-25T21:47:35.376Z,59.92
2023-09-25T21:50:02.218Z,59.84
2023-09-25T21:52:29.165Z,59.80
2023-09-25T21:54:56.144Z,59.77
2023-09-25T21:57:23.396Z,59.64
2023-09-25T21:59:50.245Z,59.59
2023-09-25T22:02:18.426Z,59.55
2023-09-25T22:04:45.513Z,59.33
2023-09-25T22:07:12.322Z,59.28
2023-09-25T22:09:39.206Z,59.27
2023-09-25T22:12:06.022Z,59.14
2023-09-25T22:14:35.719Z,58.84
2023-09-25T22:17:02.897Z,58.88
2023-09-25T22:19:29.765Z,58.71
2023-09-25T22:21:57.370Z,58.43
2023-09-25T22:24:24.233Z,58.18
2023-09-25T22:26:50.821Z,58.56
2023-09-25T22:29:19.646Z,58.64
2023-09-25T22:31:46.752Z,58.89
2023-09-25T22:34:13.698Z,59.02
2023-09-25T22:36:40.634Z,59.12
2023-09-25T22:39:12.838Z,59.13
2023-09-25T22:41:39.396Z,59.13
2023-09-25T22:44:06.292Z,59.21
2023-09-25T22:46:33.187Z,59.22
2023-09-25T22:49:00.046Z,59.20
2023-09-25T22:51:28.427Z,59.25
2023-09-25T22:53:55.139Z,58.95
2023-09-25T22:56:22.183Z,58.88
2023-09-25T22:58:49.227Z,59.01
2023-09-25T23:01:19.989Z,59.05
2023-09-25T23:03:47.181Z,59.02
2023-09-25T23:06:14.092Z,58.95
2023-09-25T23:08:40.966Z,59.06
2023-09-25T23:11:07.778Z,59.26
2023-09-25T23:13:34.935Z,59.07
2023-09-25T23:16:01.975Z,59.19
2023-09-25T23:18:28.836Z,59.44
2023-09-25T23:20:56.545Z,59.44
2023-09-25T23:23:23.694Z,59.39
2023-09-25T23:25:50.910Z,59.30
2023-09-25T23:28:17.954Z,59.27
2023-09-25T23:30:44.757Z,59.02
2023-09-25T23:33:12.854Z,58.94
2023-09-25T23:35:41.452Z,58.92
2023-09-25T23:38:08.784Z,58.95
2023-09-25T23:40:35.481Z,58.66
2023-09-25T23:43:02.363Z,58.74
2023-09-25T23:45:29.312Z,58.52
2023-09-25T23:47:56.181Z,58.52
2023-09-25T23:50:24.528Z,58.71
2023-09-25T23:52:55.165Z,58.71
2023-09-25T23:55:22.324Z,58.68
2023-09-25T23:57:49.208Z,58.61
